Time;durP1;ratioP1;P1;durP2;ratioP2;P2;SDS_P1;SDS_P2;PMS_P1;PMS_P2;Temp;Humidity;BMP_temperature;BMP_pressure;BME280_temperature;BME280_humidity;BME280_pressure;Samples;Min_cycle;Max_cycle;Signal;HPM_P1;HPM_P2
2022/05/10 00:01:41;;;;;;;6.95;6.35;;;19.30;95.80;;;;;;5050501;28;20206;-78
2022/05/10 00:04:10;;;;;;;7.75;7.07;;;19.30;95.50;;;;;;5050708;28;20198;-78
2022/05/10 00:06:41;;;;;;;6.95;6.25;;;19.20;95.60;;;;;;5062975;28;20229;-78
2022/05/10 00:09:09;;;;;;;6.63;6.03;;;19.40;95.20;;;;;;5054783;28;20647;-77
2022/05/10 00:11:37;;;;;;;7.00;6.40;;;19.40;95.10;;;;;;5056472;28;20208;-78
2022/05/10 00:14:06;;;;;;;6.93;6.25;;;19.50;95.00;;;;;;5068435;28;20197;-78
2022/05/10 00:16:37;;;;;;;6.93;6.32;;;19.40;95.00;;;;;;5065567;28;20230;-77
2022/05/10 00:19:05;;;;;;;6.97;6.28;;;19.40;95.00;;;;;;5061231;28;20544;-77
2022/05/10 00:21:32;;;;;;;6.82;6.22;;;19.40;94.90;;;;;;5055404;28;20206;-77
2022/05/10 00:24:05;;;;;;;7.38;6.47;;;19.30;94.80;;;;;;5054483;28;20210;-78
2022/05/10 00:26:32;;;;;;;7.28;6.45;;;19.30;95.00;;;;;;5053746;28;20221;-78
2022/05/10 00:29:01;;;;;;;7.07;6.47;;;19.30;94.80;;;;;;5065443;28;20209;-78
2022/05/10 00:31:31;;;;;;;7.28;6.57;;;19.20;94.90;;;;;;5064771;28;20190;-78
2022/05/10 00:34:01;;;;;;;7.43;6.60;;;19.30;95.00;;;;;;5069360;28;20194;-77
2022/05/10 00:36:30;;;;;;;7.13;6.43;;;19.30;94.90;;;;;;5048184;28;20221;-77
2022/05/10 00:38:58;;;;;;;7.05;6.20;;;19.20;94.90;;;;;;5069282;28;20209;-78
2022/05/10 00:41:29;;;;;;;6.75;6.15;;;19.10;95.20;;;;;;5060873;28;20195;-78
2022/05/10 00:44:03;;;;;;;7.35;6.65;;;19.20;95.00;;;;;;5057325;28;20198;-78
2022/05/10 00:46:36;;;;;;;6.28;5.78;;;19.20;95.20;;;;;;5051297;28;20218;-77
2022/05/10 00:49:16;;;;;;;6.60;6.10;;;19.10;95.20;;;;;;5068375;28;20193;-78
2022/05/10 00:51:51;;;;;;;7.53;6.82;;;19.20;95.30;;;;;;5054254;28;20197;-78
2022/05/10 00:54:30;;;;;;;7.85;7.05;;;18.90;95.50;;;;;;5064363;28;20212;-78
2022/05/10 00:57:14;;;;;;;7.22;6.60;;;19.00;95.70;;;;;;5057807;28;20190;-78
2022/05/10 00:59:53;;;;;;;7.00;6.40;;;19.00;95.60;;;;;;5069723;28;20562;-78
2022/05/10 01:02:31;;;;;;;7.35;6.70;;;19.00;95.50;;;;;;5052912;28;20194;-78
2022/05/10 01:05:06;;;;;;;6.47;5.90;;;19.00;95.60;;;;;;5069819;28;20214;-78
2022/05/10 01:07:42;;;;;;;7.60;6.90;;;19.00;95.50;;;;;;5071904;28;20208;-78
2022/05/10 01:10:16;;;;;;;7.70;7.00;;;19.00;95.50;;;;;;5071115;28;20197;-77
2022/05/10 01:12:50;;;;;;;7.50;6.40;;;18.90;95.60;;;;;;5049707;28;20204;-78
2022/05/10 01:15:21;;;;;;;6.60;6.07;;;18.90;95.80;;;;;;5054068;28;20233;-78
2022/05/10 01:17:54;;;;;;;7.22;6.63;;;18.80;96.00;;;;;;5054269;28;20216;-78
2022/05/10 01:20:28;;;;;;;6.82;6.28;;;18.80;95.90;;;;;;5073100;28;20186;-77
2022/05/10 01:23:04;;;;;;;7.38;6.55;;;18.60;96.20;;;;;;5069271;28;20574;-77
2022/05/10 01:25:53;;;;;;;7.13;6.43;;;18.50;96.30;;;;;;5058526;28;20679;-77
2022/05/10 01:28:27;;;;;;;6.65;6.15;;;18.30;96.60;;;;;;5066002;28;20292;-77
2022/05/10 01:30:58;;;;;;;6.90;6.25;;;18.40;96.80;;;;;;5071454;28;20216;-78
2022/05/10 01:33:31;;;;;;;7.07;6.38;;;18.40;96.60;;;;;;5048974;28;20198;-77
2022/05/10 01:36:21;;;;;;;6.57;5.93;;;18.50;96.60;;;;;;5055149;28;20225;-78
2022/05/10 01:38:56;;;;;;;6.40;5.90;;;18.50;96.40;;;;;;5069483;28;20196;-77
2022/05/10 01:41:43;;;;;;;6.63;6.13;;;18.60;96.40;;;;;;5059393;28;20557;-77
2022/05/10 01:44:19;;;;;;;7.65;6.45;;;18.50;96.40;;;;;;5053895;28;20202;-77
2022/05/10 01:46:48;;;;;;;6.93;6.22;;;18.60;96.40;;;;;;5073154;28;20198;-78
2022/05/10 01:49:28;;;;;;;6.65;6.15;;;18.60;96.30;;;;;;5066120;28;20244;-77
2022/05/10 01:52:01;;;;;;;6.50;5.90;;;18.60;96.30;;;;;;5069255;28;20197;-77
2022/05/10 01:55:00;;;;;;;6.80;6.10;;;18.60;96.40;;;;;;5059530;28;20205;-77
2022/05/10 01:57:30;;;;;;;6.18;5.60;;;18.60;96.20;;;;;;5068390;28;20204;-77
2022/05/10 02:00:11;;;;;;;8.40;5.90;;;18.60;96.30;;;;;;5051229;28;20194;-77
2022/05/10 02:02:47;;;;;;;6.65;6.15;;;18.60;96.20;;;;;;5069583;28;20197;-77
2022/05/10 02:05:21;;;;;;;6.22;5.72;;;18.60;96.20;;;;;;5058738;28;20225;-77
2022/05/10 02:07:54;;;;;;;6.15;5.68;;;18.70;96.10;;;;;;5067799;28;20216;-78
2022/05/10 02:10:30;;;;;;;7.00;6.40;;;18.80;96.00;;;;;;5070491;28;20204;-77
2022/05/10 02:13:03;;;;;;;6.15;5.63;;;18.50;96.40;;;;;;5071528;28;20204;-77
2022/05/10 02:15:39;;;;;;;7.00;6.40;;;18.50;96.50;;;;;;5064811;28;20570;-77
2022/05/10 02:18:14;;;;;;;6.70;6.10;;;18.50;96.40;;;;;;5047186;28;20196;-78
2022/05/10 02:20:48;;;;;;;7.13;6.40;;;18.40;96.60;;;;;;5069898;28;20193;-78
2022/05/10 02:23:21;;;;;;;6.97;6.38;;;18.40;96.70;;;;;;5063429;28;20687;-78
2022/05/10 02:25:55;;;;;;;6.30;5.70;;;18.30;96.90;;;;;;5054880;28;20226;-77
2022/05/10 02:28:31;;;;;;;7.28;5.88;;;18.30;97.00;;;;;;5061303;28;20212;-78
2022/05/10 02:31:05;;;;;;;7.05;6.35;;;18.40;96.90;;;;;;5070613;28;20193;-78
2022/05/10 02:33:32;;;;;;;7.07;6.47;;;18.40;96.90;;;;;;5072370;28;20209;-78
2022/05/10 02:36:01;;;;;;;7.50;6.57;;;18.30;97.20;;;;;;5051472;28;20676;-77
2022/05/10 02:38:35;;;;;;;7.95;7.30;;;18.30;97.30;;;;;;5068158;28;20194;-77
2022/05/10 02:41:07;;;;;;;8.00;7.20;;;18.10;97.70;;;;;;5045627;28;20197;-78
2022/05/10 02:43:41;;;;;;;7.75;7.00;;;18.00;98.30;;;;;;5059425;28;20209;-78
2022/05/10 02:46:10;;;;;;;8.75;7.85;;;18.00;98.60;;;;;;5053259;28;20221;-77
2022/05/10 02:48:40;;;;;;;8.57;7.78;;;17.70;99.20;;;;;;5067170;28;20206;-78
2022/05/10 02:51:07;;;;;;;8.00;7.30;;;17.50;99.90;;;;;;5066542;28;20213;-78
2022/05/10 02:53:35;;;;;;;7.38;6.70;;;17.60;99.90;;;;;;5062355;28;20197;-77
2022/05/10 02:56:06;;;;;;;7.82;7.07;;;17.80;99.90;;;;;;5075425;28;20220;-77
2022/05/10 02:58:39;;;;;;;8.38;7.65;;;17.80;99.90;;;;;;5056606;28;20198;-77
2022/05/10 03:01:15;;;;;;;7.82;7.22;;;17.80;99.80;;;;;;5055958;28;20200;-77
2022/05/10 03:03:45;;;;;;;7.40;6.70;;;17.70;99.90;;;;;;5062856;28;20204;-78
2022/05/10 03:06:17;;;;;;;7.97;7.28;;;17.70;99.90;;;;;;5069006;28;20608;-77
2022/05/10 03:08:45;;;;;;;7.38;6.65;;;17.60;99.90;;;;;;5067771;28;20214;-77
2022/05/10 03:11:13;;;;;;;7.45;6.75;;;17.70;99.90;;;;;;5054793;28;20198;-77
2022/05/10 03:13:40;;;;;;;7.40;6.70;;;17.80;99.70;;;;;;5071300;28;20189;-78
2022/05/10 03:16:08;;;;;;;7.28;6.63;;;17.90;99.60;;;;;;5068460;28;20236;-78
2022/05/10 03:18:38;;;;;;;7.35;6.72;;;17.80;99.70;;;;;;5065558;28;20651;-77
2022/05/10 03:21:05;;;;;;;7.28;6.57;;;17.80;99.90;;;;;;5068261;28;20204;-78
2022/05/10 03:23:32;;;;;;;7.80;7.10;;;17.90;99.80;;;;;;5069001;28;20652;-78
2022/05/10 03:26:00;;;;;;;7.63;6.88;;;17.90;99.60;;;;;;5064153;28;20702;-78
2022/05/10 03:28:35;;;;;;;6.90;6.30;;;17.90;99.50;;;;;;5067955;28;20209;-77
2022/05/10 03:31:04;;;;;;;6.78;6.28;;;17.90;99.30;;;;;;5060378;28;20190;-77
2022/05/10 03:33:32;;;;;;;7.20;6.60;;;17.80;99.40;;;;;;5062926;28;20284;-77
2022/05/10 03:36:01;;;;;;;7.03;6.38;;;17.80;99.40;;;;;;5060056;28;20225;-77
2022/05/10 03:38:29;;;;;;;7.32;6.53;;;17.90;99.20;;;;;;5071230;28;20201;-77
2022/05/10 03:40:57;;;;;;;8.57;6.43;;;17.80;99.10;;;;;;5054555;28;20199;-77
2022/05/10 03:43:26;;;;;;;7.03;6.43;;;17.80;99.10;;;;;;5055852;28;20198;-77
2022/05/10 03:45:56;;;;;;;6.90;6.30;;;17.80;99.20;;;;;;5045666;28;20222;-77
2022/05/10 03:48:23;;;;;;;6.68;6.15;;;17.80;99.20;;;;;;5053725;28;20213;-77
2022/05/10 03:50:51;;;;;;;8.40;6.80;;;17.80;99.30;;;;;;5054600;28;20202;-77
2022/05/10 03:53:19;;;;;;;7.93;7.15;;;17.80;99.20;;;;;;5050869;28;20202;-77
2022/05/10 03:55:47;;;;;;;9.50;6.60;;;17.90;99.00;;;;;;5047422;28;20585;-77
2022/05/10 03:58:14;;;;;;;7.25;6.40;;;17.90;99.00;;;;;;5063541;28;20205;-77
2022/05/10 04:00:42;;;;;;;7.05;6.45;;;17.90;98.90;;;;;;5066355;28;20201;-77
2022/05/10 04:03:09;;;;;;;7.07;6.47;;;18.00;98.90;;;;;;5065488;28;20216;-77
2022/05/10 04:05:37;;;;;;;7.72;6.93;;;18.00;98.70;;;;;;5073044;28;20225;-77
2022/05/10 04:08:06;;;;;;;7.65;6.75;;;18.00;98.70;;;;;;5048671;28;20686;-77
2022/05/10 04:10:35;;;;;;;8.15;6.78;;;18.00;99.00;;;;;;5069170;28;20209;-77
2022/05/10 04:13:03;;;;;;;8.77;6.53;;;18.00;98.80;;;;;;5051782;28;20198;-77
2022/05/10 04:15:31;;;;;;;8.35;7.50;;;18.00;98.80;;;;;;5066381;28;20229;-77
2022/05/10 04:18:02;;;;;;;6.85;6.35;;;17.90;98.90;;;;;;5066258;28;20548;-79
2022/05/10 04:20:30;;;;;;;8.00;7.20;;;17.90;99.10;;;;;;5050867;28;20201;-79
2022/05/10 04:22:59;;;;;;;9.35;7.30;;;17.90;99.00;;;;;;5059151;28;20194;-79
2022/05/10 04:25:27;;;;;;;9.32;6.85;;;17.90;99.00;;;;;;5063750;28;20218;-79
2022/05/10 04:27:56;;;;;;;8.52;7.72;;;17.90;99.20;;;;;;5065798;28;20197;-79
2022/05/10 04:30:24;;;;;;;8.35;7.18;;;17.90;99.20;;;;;;5051930;28;20210;-83
2022/05/10 04:32:56;;;;;;;8.65;7.10;;;17.90;99.20;;;;;;5053591;28;20212;-80
2022/05/10 04:35:23;;;;;;;8.93;8.02;;;18.00;99.10;;;;;;5078232;28;20228;-80
2022/05/10 04:37:51;;;;;;;8.10;7.30;;;17.80;99.30;;;;;;5068622;28;20587;-80
2022/05/10 04:43:05;;;;;;;8.85;7.68;;;17.80;99.50;;;;;;5071771;28;20190;-80
2022/05/10 04:45:32;;;;;;;8.25;7.47;;;17.80;99.40;;;;;;5069800;28;20221;-80
2022/05/10 04:47:59;;;;;;;8.68;7.97;;;17.80;99.50;;;;;;5064561;28;20247;-80
2022/05/10 04:50:27;;;;;;;7.47;6.78;;;17.80;99.40;;;;;;5069095;28;20213;-79
2022/05/10 04:52:54;;;;;;;8.25;7.40;;;17.90;99.50;;;;;;5068725;28;20561;-80
2022/05/10 04:55:32;;;;;;;;;;;;;;;;;;;;;
2022/05/10 04:58:01;;;;;;;8.50;7.80;;;17.80;99.90;;;;;;5054250;28;20203;-78
2022/05/10 05:00:31;;;;;;;7.60;6.90;;;17.70;99.90;;;;;;5064597;28;20198;-79
2022/05/10 05:03:04;;;;;;;8.00;7.35;;;17.60;99.90;;;;;;5053364;28;20587;-80
2022/05/10 05:05:32;;;;;;;9.95;8.50;;;17.70;99.90;;;;;;5068303;28;20581;-80
2022/05/10 05:07:59;;;;;;;8.77;7.88;;;17.60;99.90;;;;;;5055375;28;20575;-79
2022/05/10 05:10:32;;;;;;;8.13;7.43;;;17.70;99.90;;;;;;5062960;28;20671;-80
2022/05/10 05:12:59;;;;;;;8.15;7.45;;;17.80;99.90;;;;;;5054916;28;20197;-80
2022/05/10 05:15:31;;;;;;;10.35;8.27;;;17.80;99.90;;;;;;5073044;28;20240;-80
2022/05/10 05:18:03;;;;;;;7.72;7.03;;;17.90;99.90;;;;;;5059534;28;20221;-79
2022/05/10 05:20:41;;;;;;;7.70;6.90;;;17.80;99.90;;;;;;5068937;28;20185;-80
2022/05/10 05:23:09;;;;;;;9.07;8.18;;;17.90;99.90;;;;;;5051484;28;20198;-79
2022/05/10 05:25:37;;;;;;;8.25;7.53;;;17.80;99.90;;;;;;5056301;28;20218;-78
2022/05/10 05:28:07;;;;;;;8.10;7.25;;;17.80;99.90;;;;;;5069617;28;20228;-79
2022/05/10 05:30:36;;;;;;;9.35;7.72;;;17.70;99.90;;;;;;5065242;22;20520;-82
2022/05/10 05:33:04;;;;;;;10.60;7.18;;;17.80;99.90;;;;;;5085080;28;20197;-80
2022/05/10 05:35:32;;;;;;;9.35;7.43;;;18.00;99.90;;;;;;5097220;28;20197;-80
2022/05/10 05:38:01;;;;;;;10.70;7.22;;;18.00;99.80;;;;;;5093510;28;20196;-80
2022/05/10 05:40:28;;;;;;;10.63;7.57;;;18.10;99.90;;;;;;5093378;28;20235;-80
2022/05/10 05:42:58;;;;;;;9.30;6.60;;;18.10;99.60;;;;;;5092508;28;20192;-80
2022/05/10 05:45:25;;;;;;;9.30;7.18;;;18.50;99.90;;;;;;5088518;28;20201;-80
2022/05/10 05:48:11;;;;;;;7.88;7.05;;;18.60;98.90;;;;;;5086506;28;20213;-80
2022/05/10 05:50:39;;;;;;;9.02;7.43;;;18.10;99.40;;;;;;5090475;28;20247;-80
2022/05/10 05:53:07;;;;;;;12.18;8.43;;;18.10;99.80;;;;;;5089861;28;20696;-81
2022/05/10 05:55:35;;;;;;;16.33;8.77;;;18.40;99.80;;;;;;5088549;28;20201;-80
2022/05/10 05:58:02;;;;;;;14.40;7.93;;;18.80;99.00;;;;;;5093381;28;20181;-79
2022/05/10 06:00:38;;;;;;;12.40;8.55;;;19.00;98.60;;;;;;5091346;28;20220;-80
2022/05/10 06:03:06;;;;;;;9.18;7.40;;;19.20;98.00;;;;;;5092454;28;20204;-80
2022/05/10 06:05:35;;;;;;;8.32;7.30;;;19.20;97.80;;;;;;5086402;28;20551;-80
2022/05/10 06:08:06;;;;;;;7.70;6.82;;;18.70;98.40;;;;;;5102195;28;20193;-80
2022/05/10 06:10:36;;;;;;;8.23;7.40;;;18.40;99.30;;;;;;5092574;28;20230;-81
2022/05/10 06:13:04;;;;;;;12.10;7.93;;;18.50;99.70;;;;;;5089550;28;20243;-80
2022/05/10 06:15:34;;;;;;;10.45;7.32;;;18.80;99.10;;;;;;5091413;28;20200;-80
2022/05/10 06:18:27;;;;;;;9.40;7.63;;;19.20;98.70;;;;;;5090675;28;20201;-79
2022/05/10 06:20:57;;;;;;;9.05;6.78;;;19.20;98.80;;;;;;5090633;28;20209;-80
2022/05/10 06:23:25;;;;;;;10.23;8.75;;;19.50;98.20;;;;;;5088924;28;20198;-79
2022/05/10 06:25:52;;;;;;;7.05;6.35;;;19.30;98.50;;;;;;5089098;28;20579;-79
2022/05/10 06:28:19;;;;;;;8.32;7.53;;;19.40;99.20;;;;;;5091252;28;20212;-80
2022/05/10 06:30:47;;;;;;;10.10;7.40;;;19.10;99.60;;;;;;5093406;28;20224;-80
2022/05/10 06:33:15;;;;;;;8.45;6.85;;;19.10;99.80;;;;;;5087764;28;20571;-80
2022/05/10 06:35:44;;;;;;;8.18;6.47;;;19.30;99.60;;;;;;5091532;28;20186;-79
2022/05/10 06:38:24;;;;;;;8.10;6.45;;;19.40;99.30;;;;;;5091664;28;20193;-80
2022/05/10 06:40:52;;;;;;;10.02;7.50;;;19.50;99.10;;;;;;5092115;28;20208;-79
2022/05/10 06:43:20;;;;;;;8.65;6.20;;;19.40;99.70;;;;;;5095250;28;20523;-80
2022/05/10 06:45:48;;;;;;;7.63;6.82;;;19.50;99.50;;;;;;5093847;28;20205;-80
2022/05/10 06:48:16;;;;;;;8.75;7.38;;;19.50;99.40;;;;;;5091906;28;20283;-84
2022/05/10 06:50:48;;;;;;;9.00;7.20;;;19.40;99.40;;;;;;5090468;28;20220;-82
2022/05/10 06:53:17;;;;;;;9.45;8.05;;;19.40;99.80;;;;;;5089728;28;20200;-83
2022/05/10 06:55:44;;;;;;;8.43;7.18;;;19.40;99.70;;;;;;5091579;28;20196;-83
2022/05/10 06:58:12;;;;;;;9.38;7.40;;;19.50;99.90;;;;;;5092079;28;20566;-84
2022/05/10 07:00:42;;;;;;;10.80;7.47;;;19.60;99.90;;;;;;5088554;28;20220;-82
2022/05/10 07:03:11;;;;;;;7.90;7.10;;;19.70;99.90;;;;;;5092512;28;20200;-82
2022/05/10 07:05:41;;;;;;;8.93;7.78;;;19.60;99.60;;;;;;5094685;28;20185;-82
2022/05/10 07:08:09;;;;;;;8.82;7.90;;;19.60;99.90;;;;;;5092134;28;20193;-82
2022/05/10 07:10:38;;;;;;;8.32;7.32;;;19.70;99.90;;;;;;5092500;28;20225;-82
2022/05/10 07:13:05;;;;;;;8.43;7.57;;;19.70;99.90;;;;;;5091092;28;20199;-82
2022/05/10 07:15:32;;;;;;;8.77;7.88;;;19.80;99.90;;;;;;5091006;28;20202;-82
2022/05/10 07:18:00;;;;;;;8.88;7.90;;;19.80;99.70;;;;;;5091380;28;20712;-83
2022/05/10 07:20:27;;;;;;;12.27;8.45;;;19.90;99.60;;;;;;5093545;28;20209;-83
2022/05/10 07:22:54;;;;;;;9.60;8.13;;;20.00;99.10;;;;;;5091628;28;20548;-83
2022/05/10 07:25:25;;;;;;;8.48;7.63;;;20.10;99.70;;;;;;5096418;28;20193;-83
2022/05/10 07:27:54;;;;;;;8.43;7.63;;;20.20;99.90;;;;;;5092229;28;20197;-83
2022/05/10 07:30:23;;;;;;;8.30;7.25;;;20.30;99.80;;;;;;5092898;28;20213;-83
2022/05/10 07:32:51;;;;;;;9.73;7.75;;;20.30;97.90;;;;;;5089096;28;20205;-83
2022/05/10 07:36:23;;;;;;;9.45;7.00;;;20.40;97.30;;;;;;5092675;28;20207;-82
2022/05/10 07:38:07;;;;;;;7.43;6.60;;;20.50;97.40;;;;;;5089059;28;20197;-82
2022/05/10 07:40:34;;;;;;;7.70;7.00;;;20.60;98.00;;;;;;5092490;28;20224;-81
2022/05/10 07:43:06;;;;;;;8.82;6.55;;;20.70;97.60;;;;;;5091979;28;20653;-81
2022/05/10 07:45:35;;;;;;;7.47;6.68;;;20.80;98.00;;;;;;5092718;28;20669;-81
2022/05/10 07:48:03;;;;;;;9.48;7.03;;;20.80;97.50;;;;;;5091912;28;20212;-81
2022/05/10 07:50:30;;;;;;;7.25;6.65;;;20.90;97.20;;;;;;5092018;28;20582;-81
2022/05/10 07:53:06;;;;;;;13.32;7.30;;;21.00;97.20;;;;;;5086931;28;20197;-82
2022/05/10 07:55:33;;;;;;;7.40;5.65;;;21.00;96.30;;;;;;5091769;28;20645;-81
2022/05/10 07:58:10;;;;;;;8.15;6.85;;;21.20;96.10;;;;;;5092822;28;20197;-82
2022/05/10 08:00:40;;;;;;;8.40;6.75;;;21.30;96.10;;;;;;5099326;28;20608;-80
2022/05/10 08:03:10;;;;;;;7.28;5.78;;;21.30;95.80;;;;;;5078184;28;20198;-79
2022/05/10 08:05:38;;;;;;;6.45;5.78;;;21.40;95.50;;;;;;5090662;28;20204;-80
2022/05/10 08:08:06;;;;;;;7.07;5.93;;;21.50;95.30;;;;;;5089572;28;20196;-80
2022/05/10 08:10:34;;;;;;;8.18;5.90;;;21.60;95.30;;;;;;5093498;28;20231;-79
2022/05/10 08:13:02;;;;;;;6.35;5.20;;;21.70;95.00;;;;;;5085818;28;20189;-80
2022/05/10 08:15:31;;;;;;;5.80;5.30;;;21.70;95.60;;;;;;5101743;28;20196;-81
2022/05/10 08:17:58;;;;;;;6.45;5.70;;;21.80;94.80;;;;;;5102208;28;20193;-81
2022/05/10 08:20:26;;;;;;;5.88;4.72;;;21.80;94.40;;;;;;5103543;28;20209;-81
2022/05/10 08:22:53;;;;;;;8.13;6.13;;;21.90;95.00;;;;;;5102129;28;20197;-81
2022/05/10 08:25:21;;;;;;;7.80;5.78;;;22.00;94.20;;;;;;5102302;28;20215;-80
2022/05/10 08:27:48;;;;;;;5.90;5.13;;;22.10;93.10;;;;;;5097480;28;20565;-80
2022/05/10 08:30:16;;;;;;;5.75;5.15;;;22.20;91.70;;;;;;5082834;28;20174;-80
2022/05/10 08:32:45;;;;;;;7.43;5.45;;;22.20;91.90;;;;;;5081253;28;20225;-81
2022/05/10 08:35:13;;;;;;;5.80;5.13;;;22.30;91.70;;;;;;5081173;28;20221;-80
2022/05/10 08:37:40;;;;;;;5.60;5.00;;;22.30;92.00;;;;;;5093454;28;20192;-81
2022/05/10 08:40:18;;;;;;;6.78;5.25;;;22.40;92.30;;;;;;5102328;28;20204;-80
2022/05/10 08:42:49;;;;;;;5.43;5.03;;;22.50;92.50;;;;;;5098383;28;20208;-80
2022/05/10 08:45:18;;;;;;;5.55;4.97;;;22.50;91.40;;;;;;5102622;28;20197;-82
2022/05/10 08:47:53;;;;;;;7.32;4.97;;;22.40;91.90;;;;;;5085398;28;20659;-82
2022/05/10 08:50:21;;;;;;;5.25;4.85;;;22.50;92.00;;;;;;5079266;28;20193;-82
2022/05/10 08:52:51;;;;;;;5.70;5.20;;;22.40;91.70;;;;;;5082422;28;20194;-80
2022/05/10 08:55:24;;;;;;;5.63;4.90;;;22.40;91.30;;;;;;5080826;28;20209;-80
2022/05/10 08:57:54;;;;;;;5.40;4.90;;;22.40;90.80;;;;;;5100465;28;20558;-80
2022/05/10 09:00:33;;;;;;;8.07;5.15;;;22.50;90.50;;;;;;5094492;28;20198;-80
2022/05/10 09:03:10;;;;;;;7.55;4.88;;;22.60;90.70;;;;;;5110397;28;20192;-80
2022/05/10 09:05:42;;;;;;;5.63;5.07;;;22.60;90.60;;;;;;5111107;28;20655;-80
2022/05/10 09:08:17;;;;;;;6.97;5.40;;;22.60;90.40;;;;;;5104331;28;20556;-80
2022/05/10 09:10:54;;;;;;;5.85;4.63;;;22.80;90.00;;;;;;5092945;28;20213;-81
2022/05/10 09:13:23;;;;;;;5.68;4.75;;;23.10;89.40;;;;;;5097735;28;20200;-82
2022/05/10 09:15:54;;;;;;;8.82;5.10;;;23.10;86.90;;;;;;5093915;28;20208;-82
2022/05/10 09:18:25;;;;;;;5.63;5.13;;;23.10;86.70;;;;;;5089071;28;20204;-82
2022/05/10 09:21:06;;;;;;;4.97;4.47;;;23.10;85.20;;;;;;5084339;28;20221;-82
2022/05/10 09:23:43;;;;;;;6.88;5.07;;;23.20;85.40;;;;;;5088753;28;20280;-81
2022/05/10 09:26:14;;;;;;;5.15;4.45;;;23.20;85.10;;;;;;5092382;28;20196;-81
2022/05/10 09:28:46;;;;;;;8.95;5.45;;;23.20;86.70;;;;;;5092183;28;20209;-81
2022/05/10 09:34:48;;;;;;;6.10;5.05;;;23.10;85.10;;;;;;5090898;28;20181;-82
2022/05/10 09:37:21;;;;;;;9.85;4.90;;;23.20;84.60;;;;;;5101627;28;20193;-82
2022/05/10 09:40:04;;;;;;;6.07;4.28;;;23.40;83.90;;;;;;5094160;28;20200;-82
2022/05/10 09:42:35;;;;;;;6.53;4.82;;;23.40;80.70;;;;;;5091249;28;20677;-82
2022/05/10 09:45:11;;;;;;;5.97;4.50;;;23.40;82.70;;;;;;5087306;28;20205;-81
2022/05/10 09:47:54;;;;;;;6.80;4.85;;;23.40;81.70;;;;;;5085798;28;20208;-82
2022/05/10 09:50:30;;;;;;;6.40;4.45;;;23.30;81.80;;;;;;5087141;28;20563;-83
2022/05/10 09:53:18;;;;;;;5.82;4.82;;;23.40;82.40;;;;;;5082514;28;20213;-78
